KCLW/CLW METAR and TAF weather

Enter ICAO airport designator
Station Type Date Time Source
KCLW METAR 2022/06/29 00:55 UTC NOAA

KCLW 290055Z AUTO 00000KT 7SM -RA SCT010 BKN026 OVC070 24/22 A3009 RMK AO2 P0097


Station Type Date Time Source
KCLW Decoded METAR 2022/06/29 00:55 UTC NOAA

Station name not available
Jun 28, 2022 - 08:55 PM EDT / 2022.06.29 0055 UTC
Wind: Calm:0
Visibility: 7 mile(s):0
Sky conditions: overcast
Weather: light rain
Precipitation last hour: 0.97 inches
Temperature: 75 F (24 C)
Dew Point: 71 F (22 C)
Relative Humidity: 88%
Pressure (altimeter): 30.09 in. Hg (1018 hPa)
ob: KCLW 290055Z AUTO 00000KT 7SM -RA SCT010 BKN026 OVC070 24/22 A3009 RMK AO2 P0097
cycle: 1

Station Type Date Time Source
KCLW TAF UTC NOAA

Error!

Example: see airport list